Time;durP1;ratioP1;P1;durP2;ratioP2;P2;SDS_P1;SDS_P2;PMS_P1;PMS_P2;Temp;Humidity;BMP_temperature;BMP_pressure;BME280_temperature;BME280_humidity;BME280_pressure;Samples;Min_cycle;Max_cycle;Signal;HPM_P1;HPM_P2
2023/05/22 00:00:01;;;;;;;;;;;;;;;21.47;52.08;99812.50;4356305;32;33215;-81
2023/05/22 00:02:41;;;;;;;;;;;;;;;21.16;53.27;99816.97;4356176;32;33704;-81
2023/05/22 00:05:10;;;;;;;;;;;;;;;21.25;53.05;99817.16;4338304;32;33155;-81
2023/05/22 00:07:40;;;;;;;;;;;;;;;20.95;53.66;99817.03;4358214;32;33992;-81
2023/05/22 00:10:09;;;;;;;;;;;;;;;20.96;53.66;99815.19;4337809;32;33512;-82
2023/05/22 00:12:37;;;;;;;;;;;;;;;20.95;53.95;99814.34;4348727;32;33883;-81
2023/05/22 00:15:04;;;;;;;;;;;;;;;21.04;53.55;99817.22;4356033;32;33968;-82
2023/05/22 00:17:32;;;;;;;;;;;;;;;20.87;54.42;99824.88;4357156;32;34122;-81
2023/05/22 00:20:09;;;;;;;;;;;;;;;20.92;54.21;99829.84;4358430;32;33348;-81
2023/05/22 00:22:37;;;;;;;;;;;;;;;20.83;54.31;99818.06;4368522;32;33823;-81
2023/05/22 00:25:07;;;;;;;;;;;;;;;20.75;54.54;99820.59;4356149;32;33415;-81
2023/05/22 00:27:34;;;;;;;;;;;;;;;20.61;55.02;99808.34;4366698;32;34486;-81
2023/05/22 00:30:02;;;;;;;;;;;;;;;20.56;55.00;99810.59;4340473;32;32981;-81
2023/05/22 00:32:31;;;;;;;;;;;;;;;20.49;55.35;99809.38;4342142;32;33118;-81
2023/05/22 00:34:58;;;;;;;;;;;;;;;20.44;55.52;99811.56;4337333;32;34405;-81
2023/05/22 00:37:26;;;;;;;;;;;;;;;20.58;54.89;99807.75;4368155;32;34635;-81
2023/05/22 00:39:54;;;;;;;;;;;;;;;20.46;55.27;99809.59;4356036;32;33982;-81
2023/05/22 00:42:22;;;;;;;;;;;;;;;20.53;54.97;99810.81;4349473;32;33616;-81
2023/05/22 00:44:49;;;;;;;;;;;;;;;20.33;55.68;99814.31;4343337;32;31877;-81
2023/05/22 00:47:17;;;;;;;;;;;;;;;20.26;55.90;99811.28;4367093;32;33662;-81
2023/05/22 00:49:45;;;;;;;;;;;;;;;20.14;56.20;99815.84;4357209;32;34341;-81
2023/05/22 00:52:16;;;;;;;;;;;;;;;20.10;56.33;99814.41;4337251;32;32223;-81
2023/05/22 00:54:44;;;;;;;;;;;;;;;20.21;55.74;99808.13;4355328;32;33388;-82
2023/05/22 00:57:11;;;;;;;;;;;;;;;20.16;55.87;99813.88;4364970;32;34481;-80
2023/05/22 00:59:39;;;;;;;;;;;;;;;20.09;56.19;99810.03;4352953;32;33993;-80
2023/05/22 01:02:07;;;;;;;;;;;;;;;19.97;56.53;99812.88;4366939;32;33895;-81
2023/05/22 01:04:34;;;;;;;;;;;;;;;19.86;56.96;99816.44;4367541;32;32984;-80
2023/05/22 01:07:02;;;;;;;;;;;;;;;19.93;56.55;99809.56;4365966;32;34958;-81
2023/05/22 01:09:29;;;;;;;;;;;;;;;19.73;57.40;99805.00;4365630;32;33506;-81
2023/05/22 01:12:03;;;;;;;;;;;;;;;19.79;57.04;99801.81;4368128;32;33944;-81
2023/05/22 01:14:40;;;;;;;;;;;;;;;19.53;57.97;99810.13;4366789;32;33176;-81
2023/05/22 01:17:33;;;;;;;;;;;;;;;19.54;57.71;99805.63;4365349;32;34826;-81
2023/05/22 01:20:16;;;;;;;;;;;;;;;19.49;58.16;99814.03;4366462;32;32770;-81
2023/05/22 01:23:02;;;;;;;;;;;;;;;19.40;58.39;99804.06;4367120;32;35079;-80
2023/05/22 01:25:52;;;;;;;;;;;;;;;19.41;58.30;99811.94;4366673;32;31947;-81
2023/05/22 01:28:22;;;;;;;;;;;;;;;19.42;58.09;99807.47;4350518;32;32625;-81
2023/05/22 01:31:00;;;;;;;;;;;;;;;19.36;58.54;99814.16;4366039;32;34472;-81
2023/05/22 01:33:30;;;;;;;;;;;;;;;19.35;58.44;99814.28;4370446;32;34484;-81
2023/05/22 01:35:58;;;;;;;;;;;;;;;19.30;58.47;99819.16;4367915;32;33408;-80
2023/05/22 01:38:26;;;;;;;;;;;;;;;19.23;58.94;99817.91;4367636;32;33972;-81
2023/05/22 01:40:53;;;;;;;;;;;;;;;19.13;59.26;99815.12;4352994;32;33494;-80
2023/05/22 01:43:21;;;;;;;;;;;;;;;19.13;59.37;99813.31;4352580;32;33089;-80
2023/05/22 01:45:49;;;;;;;;;;;;;;;19.13;59.08;99807.97;4368344;32;33443;-80
2023/05/22 01:48:17;;;;;;;;;;;;;;;18.97;59.72;99804.78;4368897;32;32929;-80
2023/05/22 01:50:46;;;;;;;;;;;;;;;19.04;59.09;99802.50;4355059;32;33818;-80
2023/05/22 01:53:15;;;;;;;;;;;;;;;19.07;59.47;99799.56;4367683;32;33160;-80
2023/05/22 01:55:45;;;;;;;;;;;;;;;19.12;59.29;99795.53;4346887;32;33383;-81
2023/05/22 01:58:29;;;;;;;;;;;;;;;19.13;59.19;99794.59;4337821;32;34415;-81
2023/05/22 02:00:59;;;;;;;;;;;;;;;19.07;59.47;99784.34;4354619;32;32980;-82
2023/05/22 02:03:29;;;;;;;;;;;;;;;19.10;59.64;99786.78;4350640;32;33912;-81
2023/05/22 02:05:58;;;;;;;;;;;;;;;19.06;59.27;99789.81;4355475;32;32995;-81
2023/05/22 02:08:27;;;;;;;;;;;;;;;19.22;58.70;99784.09;4355847;32;36079;-80
2023/05/22 02:10:55;;;;;;;;;;;;;;;19.25;58.48;99783.88;4358591;32;34349;-81
2023/05/22 02:13:23;;;;;;;;;;;;;;;19.06;59.06;99789.81;4348733;32;34209;-81
2023/05/22 02:15:51;;;;;;;;;;;;;;;19.00;59.27;99790.31;4340668;32;32746;-81
2023/05/22 02:18:25;;;;;;;;;;;;;;;18.97;59.39;99780.69;4332751;32;32844;-81
2023/05/22 02:20:53;;;;;;;;;;;;;;;18.86;59.88;99788.72;4373194;32;34002;-81
2023/05/22 02:23:21;;;;;;;;;;;;;;;18.88;59.75;99786.75;4354539;32;34593;-81
2023/05/22 02:25:48;;;;;;;;;;;;;;;18.71;60.20;99792.59;4354464;32;32657;-81
2023/05/22 02:28:16;;;;;;;;;;;;;;;18.75;59.98;99794.87;4372950;32;34008;-81
2023/05/22 02:30:44;;;;;;;;;;;;;;;18.69;60.06;99790.03;4357426;32;34926;-81
2023/05/22 02:33:12;;;;;;;;;;;;;;;18.72;60.04;99784.44;4354842;32;34009;-81
2023/05/22 02:35:39;;;;;;;;;;;;;;;18.50;60.23;99781.69;4355949;32;33271;-81
2023/05/22 02:38:07;;;;;;;;;;;;;;;18.54;60.23;99783.16;4369998;32;34294;-81
2023/05/22 02:40:34;;;;;;;;;;;;;;;18.46;60.62;99780.22;4356033;32;33765;-81
2023/05/22 02:43:02;;;;;;;;;;;;;;;18.49;60.40;99780.84;4333999;32;33342;-81
2023/05/22 02:45:31;;;;;;;;;;;;;;;18.52;60.04;99777.94;4347721;32;33316;-81
2023/05/22 02:48:00;;;;;;;;;;;;;;;18.68;59.27;99781.16;4343675;32;34094;-81
2023/05/22 02:50:28;;;;;;;;;;;;;;;18.61;59.37;99782.59;4354835;32;34049;-81
2023/05/22 02:52:56;;;;;;;;;;;;;;;18.79;58.63;99774.09;4349350;32;34777;-81
2023/05/22 02:55:23;;;;;;;;;;;;;;;18.73;59.02;99777.28;4348735;32;33561;-81
2023/05/22 02:57:51;;;;;;;;;;;;;;;18.46;59.77;99786.41;4356489;32;34208;-81
2023/05/22 03:00:19;;;;;;;;;;;;;;;18.33;60.21;99783.84;4360539;32;33455;-80
2023/05/22 03:02:47;;;;;;;;;;;;;;;18.34;60.61;99788.22;4367229;32;33853;-80
2023/05/22 03:05:16;;;;;;;;;;;;;;;18.22;61.04;99777.59;4354575;32;32594;-81
2023/05/22 03:07:44;;;;;;;;;;;;;;;18.13;61.23;99785.31;4366611;32;33902;-81
2023/05/22 03:10:16;;;;;;;;;;;;;;;18.24;60.44;99787.22;4370625;32;33840;-81
2023/05/22 03:12:46;;;;;;;;;;;;;;;18.17;60.55;99788.63;4357302;32;34297;-81
2023/05/22 03:15:17;;;;;;;;;;;;;;;18.05;60.90;99787.75;4367861;32;34067;-81
2023/05/22 03:17:47;;;;;;;;;;;;;;;18.07;61.09;99775.09;4367256;32;33998;-82
2023/05/22 03:20:15;;;;;;;;;;;;;;;18.15;60.68;99778.06;4358458;32;32852;-81
2023/05/22 03:22:44;;;;;;;;;;;;;;;18.21;60.48;99781.25;4368710;32;33189;-81
2023/05/22 03:25:15;;;;;;;;;;;;;;;18.01;60.99;99778.25;4369941;32;33805;-81
2023/05/22 03:27:43;;;;;;;;;;;;;;;18.03;60.92;99775.44;4368907;32;34767;-81
2023/05/22 03:30:10;;;;;;;;;;;;;;;18.06;60.85;99777.91;4369409;32;33160;-81
2023/05/22 03:32:39;;;;;;;;;;;;;;;18.25;59.97;99782.72;4355190;32;33161;-81
2023/05/22 03:35:07;;;;;;;;;;;;;;;18.31;59.40;99776.91;4369557;32;33727;-81
2023/05/22 03:37:35;;;;;;;;;;;;;;;18.24;59.73;99781.88;4368322;32;33960;-81
2023/05/22 03:40:06;;;;;;;;;;;;;;;18.26;60.21;99779.91;4366944;32;33789;-81
2023/05/22 03:42:37;;;;;;;;;;;;;;;18.30;60.20;99773.37;4366314;32;33539;-80
2023/05/22 03:45:06;;;;;;;;;;;;;;;18.33;60.27;99783.00;4369280;32;33424;-80
2023/05/22 03:47:34;;;;;;;;;;;;;;;18.27;60.36;99775.41;4354050;32;33865;-81
2023/05/22 03:50:04;;;;;;;;;;;;;;;18.32;60.40;99779.44;4368746;32;34686;-81
2023/05/22 03:52:32;;;;;;;;;;;;;;;18.31;60.52;99777.75;4367187;32;33343;-81
2023/05/22 03:55:00;;;;;;;;;;;;;;;18.53;60.05;99776.12;4367507;32;35446;-81
2023/05/22 03:57:31;;;;;;;;;;;;;;;18.44;59.95;99769.66;4366031;32;34854;-80
2023/05/22 04:00:08;;;;;;;;;;;;;;;18.64;59.48;99774.31;4353269;32;34317;-81
2023/05/22 04:02:43;;;;;;;;;;;;;;;18.48;59.54;99771.13;4350027;32;33806;-80
2023/05/22 04:05:12;;;;;;;;;;;;;;;18.68;59.04;99772.25;4365617;32;32550;-81
2023/05/22 04:07:40;;;;;;;;;;;;;;;18.52;59.62;99767.25;4361510;32;33894;-81
2023/05/22 04:10:08;;;;;;;;;;;;;;;18.53;59.58;99776.12;4355296;32;32848;-80
2023/05/22 04:12:44;;;;;;;;;;;;;;;18.26;61.00;99781.75;4364429;32;33356;-81
2023/05/22 04:15:14;;;;;;;;;;;;;;;18.47;60.16;99776.56;4354447;32;33803;-81
2023/05/22 04:17:44;;;;;;;;;;;;;;;18.43;60.02;99782.16;4353871;32;33406;-81
2023/05/22 04:20:12;;;;;;;;;;;;;;;18.51;60.05;99772.69;4341461;32;33063;-81
2023/05/22 04:22:48;;;;;;;;;;;;;;;18.36;60.60;99774.72;4361442;32;34931;-80
2023/05/22 04:25:16;;;;;;;;;;;;;;;18.63;59.80;99777.94;4365621;32;32542;-80
2023/05/22 04:27:43;;;;;;;;;;;;;;;18.42;60.71;99776.94;4347733;32;33884;-81
2023/05/22 04:30:13;;;;;;;;;;;;;;;18.60;60.32;99772.81;4362273;32;32572;-80
2023/05/22 04:32:44;;;;;;;;;;;;;;;18.74;60.12;99784.31;4330074;32;32423;-81
2023/05/22 04:35:17;;;;;;;;;;;;;;;18.70;61.42;99783.69;4351415;32;33836;-81
2023/05/22 04:37:46;;;;;;;;;;;;;;;18.90;60.18;99788.37;4360541;32;33883;-81
2023/05/22 04:40:15;;;;;;;;;;;;;;;19.06;59.02;99774.63;4349976;32;34826;-81
2023/05/22 04:42:44;;;;;;;;;;;;;;;19.25;58.89;99779.34;4353701;32;33282;-81
2023/05/22 04:45:12;;;;;;;;;;;;;;;19.10;59.44;99776.09;4362423;32;33997;-81
2023/05/22 04:47:43;;;;;;;;;;;;;;;19.10;59.83;99784.12;4351363;32;32729;-81
2023/05/22 04:50:15;;;;;;;;;;;;;;;19.10;60.20;99781.44;4354783;32;34270;-81
2023/05/22 04:52:45;;;;;;;;;;;;;;;18.99;60.74;99784.12;4351589;32;33728;-81
2023/05/22 04:55:14;;;;;;;;;;;;;;;19.09;60.87;99790.44;4345331;32;33302;-81
2023/05/22 04:57:46;;;;;;;;;;;;;;;19.42;60.01;99780.69;4334122;32;33015;-80
2023/05/22 05:00:25;;;;;;;;;;;;;;;19.30;60.44;99793.22;4356820;32;32598;-80
2023/05/22 05:02:56;;;;;;;;;;;;;;;19.44;60.35;99786.75;4367101;32;34643;-80
2023/05/22 05:05:24;;;;;;;;;;;;;;;19.52;60.51;99781.66;4347930;32;34438;-79
2023/05/22 05:07:52;;;;;;;;;;;;;;;19.29;61.48;99785.31;4325302;32;33361;-80
2023/05/22 05:10:21;;;;;;;;;;;;;;;19.49;61.04;99792.59;4328019;32;35735;-80
2023/05/22 05:12:49;;;;;;;;;;;;;;;19.56;58.16;99788.47;4346302;32;33027;-79
2023/05/22 05:15:17;;;;;;;;;;;;;;;19.66;54.34;99789.44;4340360;32;33262;-80
2023/05/22 05:17:47;;;;;;;;;;;;;;;19.81;53.66;99791.84;4346402;32;33921;-80
2023/05/22 05:20:15;;;;;;;;;;;;;;;20.06;52.88;99793.34;4327859;32;33203;-81
2023/05/22 05:22:44;;;;;;;;;;;;;;;20.28;50.30;99789.72;4346891;32;34851;-80
2023/05/22 05:25:14;;;;;;;;;;;;;;;20.42;49.81;99792.09;4359371;32;33190;-80
2023/05/22 05:27:42;;;;;;;;;;;;;;;20.50;49.23;99800.34;4346182;32;32724;-80
2023/05/22 05:30:10;;;;;;;;;;;;;;;20.61;49.31;99799.47;4324939;32;33249;-80
2023/05/22 05:32:41;;;;;;;;;;;;;;;20.58;49.89;99800.56;4345731;32;34022;-80
2023/05/22 05:35:09;;;;;;;;;;;;;;;20.75;48.62;99803.63;4333895;32;31621;-80
2023/05/22 05:37:40;;;;;;;;;;;;;;;21.09;46.76;99797.03;4338248;32;34124;-80
2023/05/22 05:40:10;;;;;;;;;;;;;;;21.07;47.16;99795.47;4358016;32;33082;-79
2023/05/22 05:42:39;;;;;;;;;;;;;;;21.02;47.84;99795.87;4343307;32;33496;-80
2023/05/22 05:45:08;;;;;;;;;;;;;;;21.34;47.50;99805.66;4362051;32;33319;-80
2023/05/22 05:47:36;;;;;;;;;;;;;;;21.33;47.42;99809.34;4344676;32;33781;-80
2023/05/22 05:50:05;;;;;;;;;;;;;;;21.71;45.88;99809.44;4372939;32;33997;-80
2023/05/22 05:52:36;;;;;;;;;;;;;;;21.67;45.50;99807.16;4360585;32;33293;-80
2023/05/22 05:55:07;;;;;;;;;;;;;;;22.01;43.97;99806.81;4331240;32;33035;-80
2023/05/22 05:57:37;;;;;;;;;;;;;;;22.07;42.59;99807.09;4355511;32;32938;-80
2023/05/22 06:00:10;;;;;;;;;;;;;;;22.65;41.57;99807.12;4353867;32;33852;-80
2023/05/22 06:02:40;;;;;;;;;;;;;;;22.82;40.80;99807.34;4347813;32;33817;-80
2023/05/22 06:05:12;;;;;;;;;;;;;;;22.99;40.57;99806.62;4321440;32;33410;-80
2023/05/22 06:07:40;;;;;;;;;;;;;;;23.14;40.07;99807.84;4354433;32;33902;-80
2023/05/22 06:10:09;;;;;;;;;;;;;;;22.93;39.29;99807.19;4346348;32;34525;-80
2023/05/22 06:12:38;;;;;;;;;;;;;;;23.01;39.30;99801.94;4350077;32;34826;-80
2023/05/22 06:15:08;;;;;;;;;;;;;;;23.23;39.32;99808.81;4344425;32;33604;-80
2023/05/22 06:17:39;;;;;;;;;;;;;;;23.66;38.09;99796.59;4347477;32;33136;-80
2023/05/22 06:20:13;;;;;;;;;;;;;;;23.48;38.61;99802.75;4357603;32;33251;-80
2023/05/22 06:22:42;;;;;;;;;;;;;;;23.88;39.37;99782.69;4349418;32;34108;-80
2023/05/22 06:25:17;;;;;;;;;;;;;;;23.86;37.62;99784.69;4332746;32;34890;-81
2023/05/22 06:27:46;;;;;;;;;;;;;;;23.44;36.67;99800.50;4331777;32;34737;-80
2023/05/22 06:30:15;;;;;;;;;;;;;;;23.32;35.63;99807.09;4346717;32;32601;-81
2023/05/22 06:33:06;;;;;;;;;;;;;;;23.63;35.46;99792.31;4353920;32;34853;-81
2023/05/22 06:35:37;;;;;;;;;;;;;;;23.92;34.64;99788.59;4367237;32;32478;-80
2023/05/22 06:38:09;;;;;;;;;;;;;;;23.79;35.27;99786.28;4354357;32;33773;-80
2023/05/22 06:43:12;;;;;;;;;;;;;;;24.05;34.63;99788.22;4347497;32;34054;-81
2023/05/22 06:45:43;;;;;;;;;;;;;;;23.71;35.33;99792.44;4333192;32;32513;-80
2023/05/22 06:48:12;;;;;;;;;;;;;;;24.45;34.35;99790.47;4352920;32;32951;-80
2023/05/22 06:50:42;;;;;;;;;;;;;;;24.13;33.75;99797.25;4352083;32;33583;-80
2023/05/22 06:53:11;;;;;;;;;;;;;;;23.76;34.80;99805.47;4332087;32;33608;-81
2023/05/22 06:55:39;;;;;;;;;;;;;;;23.82;34.76;99804.00;4346392;32;33799;-80
2023/05/22 06:58:11;;;;;;;;;;;;;;;24.08;34.51;99799.56;4344028;32;33873;-81
2023/05/22 07:00:40;;;;;;;;;;;;;;;24.31;35.04;99804.47;4348264;32;35140;-80
2023/05/22 07:03:10;;;;;;;;;;;;;;;24.24;34.93;99805.09;4347481;32;34896;-81
2023/05/22 07:05:39;;;;;;;;;;;;;;;24.35;34.01;99795.06;4344380;32;33255;-81
2023/05/22 07:08:10;;;;;;;;;;;;;;;24.59;34.51;99792.59;4345911;32;34030;-81
2023/05/22 07:10:39;;;;;;;;;;;;;;;24.96;35.45;99788.81;4359164;32;33668;-80
2023/05/22 07:13:08;;;;;;;;;;;;;;;24.94;34.28;99801.66;4331599;32;34023;-80
2023/05/22 07:15:38;;;;;;;;;;;;;;;24.97;35.06;99798.59;4344413;32;33516;-80
2023/05/22 07:18:09;;;;;;;;;;;;;;;24.77;34.12;99793.41;4343369;32;32921;-80
2023/05/22 07:20:39;;;;;;;;;;;;;;;25.05;33.75;99790.56;4320107;32;34219;-80
2023/05/22 07:23:09;;;;;;;;;;;;;;;24.67;35.82;99802.63;4347701;32;32427;-80
2023/05/22 07:25:38;;;;;;;;;;;;;;;25.12;33.51;99798.91;4340544;32;32809;-81
2023/05/22 07:28:10;;;;;;;;;;;;;;;25.08;35.24;99802.94;4354024;32;33705;-81
2023/05/22 07:30:40;;;;;;;;;;;;;;;24.21;34.47;99810.84;4343151;32;34765;-81
2023/05/22 07:33:09;;;;;;;;;;;;;;;24.13;34.28;99805.34;4332000;32;33712;-81
2023/05/22 07:35:45;;;;;;;;;;;;;;;24.47;35.44;99810.06;4353719;32;33523;-81
2023/05/22 07:38:15;;;;;;;;;;;;;;;24.06;35.17;99809.66;4349715;32;34269;-81
2023/05/22 07:40:46;;;;;;;;;;;;;;;24.12;33.72;99806.38;4344438;32;33830;-81
2023/05/22 07:43:15;;;;;;;;;;;;;;;24.12;35.13;99800.97;4350927;32;34882;-80
2023/05/22 07:45:45;;;;;;;;;;;;;;;23.98;34.57;99804.19;4354065;32;32514;-82
2023/05/22 07:48:16;;;;;;;;;;;;;;;23.97;35.35;99797.94;4340946;32;33072;-80
2023/05/22 07:50:46;;;;;;;;;;;;;;;24.11;35.82;99793.84;4344029;32;35023;-81
2023/05/22 07:53:15;;;;;;;;;;;;;;;24.36;35.24;99796.78;4345305;32;33754;-81
2023/05/22 07:55:44;;;;;;;;;;;;;;;24.61;35.25;99787.91;4332486;32;33457;-81
2023/05/22 07:58:13;;;;;;;;;;;;;;;24.35;36.49;99795.06;4344500;32;34074;-81
2023/05/22 08:00:43;;;;;;;;;;;;;;;23.91;38.36;99793.16;4341282;32;33890;-81
2023/05/22 08:03:13;;;;;;;;;;;;;;;24.21;36.93;99788.37;4362192;32;33714;-81
2023/05/22 08:05:41;;;;;;;;;;;;;;;24.14;37.18;99793.56;4331864;32;33260;-81
2023/05/22 08:08:10;;;;;;;;;;;;;;;24.19;37.72;99790.41;4344089;32;34864;-80
2023/05/22 08:10:39;;;;;;;;;;;;;;;24.17;36.77;99798.66;4365252;32;34864;-80
2023/05/22 08:13:27;;;;;;;;;;;;;;;23.62;37.17;99800.56;4321347;32;32446;-80
2023/05/22 08:15:55;;;;;;;;;;;;;;;23.35;37.96;99801.38;4328963;32;33390;-80
2023/05/22 08:18:27;;;;;;;;;;;;;;;23.74;37.26;99797.53;4336096;32;34231;-80
2023/05/22 08:21:00;;;;;;;;;;;;;;;23.69;37.81;99799.84;4353254;32;35043;-80
2023/05/22 08:23:28;;;;;;;;;;;;;;;24.25;36.90;99790.59;4329887;32;32553;-80
2023/05/22 08:25:56;;;;;;;;;;;;;;;24.32;37.17;99796.25;4362405;32;33691;-80
2023/05/22 08:28:25;;;;;;;;;;;;;;;24.31;37.54;99799.97;4347528;32;33790;-80
2023/05/22 08:30:54;;;;;;;;;;;;;;;24.34;37.39;99798.78;4352217;32;34414;-80
2023/05/22 08:33:23;;;;;;;;;;;;;;;23.96;38.00;99790.84;4319929;32;34440;-81
2023/05/22 08:35:51;;;;;;;;;;;;;;;24.60;38.29;99788.94;4350557;32;32553;-81
2023/05/22 08:38:21;;;;;;;;;;;;;;;24.34;37.40;99791.53;4347015;32;32490;-81
2023/05/22 08:40:49;;;;;;;;;;;;;;;24.46;38.28;99792.19;4349151;32;33958;-81
2023/05/22 08:43:19;;;;;;;;;;;;;;;24.70;37.07;99792.38;4320549;32;32901;-82
2023/05/22 08:45:51;;;;;;;;;;;;;;;24.98;35.93;99800.31;4341976;32;34054;-81
2023/05/22 08:48:22;;;;;;;;;;;;;;;25.18;36.14;99792.88;4329976;32;32596;-81
2023/05/22 08:50:57;;;;;;;;;;;;;;;25.25;34.95;99794.75;4349259;32;33026;-81
2023/05/22 08:53:26;;;;;;;;;;;;;;;25.16;35.79;99790.34;4344621;32;33036;-81
2023/05/22 08:55:54;;;;;;;;;;;;;;;25.63;35.46;99791.69;4347334;32;32641;-80
2023/05/22 08:58:22;;;;;;;;;;;;;;;26.03;35.81;99788.28;4347632;32;34970;-81
2023/05/22 09:00:57;;;;;;;;;;;;;;;25.72;35.02;99796.97;4348181;32;35126;-81
2023/05/22 09:03:27;;;;;;;;;;;;;;;25.69;35.79;99793.75;4346544;32;32157;-81
2023/05/22 09:05:55;;;;;;;;;;;;;;;26.38;33.35;99788.97;4334383;32;33074;-81
2023/05/22 09:08:27;;;;;;;;;;;;;;;26.10;35.00;99789.28;4347887;32;35073;-81
2023/05/22 09:10:57;;;;;;;;;;;;;;;25.83;35.07;99786.88;4346135;32;33828;-81
2023/05/22 09:13:29;;;;;;;;;;;;;;;26.18;35.95;99786.59;4333114;32;33013;-81
2023/05/22 09:15:59;;;;;;;;;;;;;;;26.50;34.17;99791.22;4360571;32;33638;-81
2023/05/22 09:18:30;;;;;;;;;;;;;;;26.35;34.15;99789.31;4336638;32;33892;-81
2023/05/22 09:21:03;;;;;;;;;;;;;;;26.38;34.73;99786.28;4349058;32;35142;-81
2023/05/22 09:23:41;;;;;;;;;;;;;;;26.03;34.83;99783.72;4360800;32;32716;-81
2023/05/22 09:26:14;;;;;;;;;;;;;;;26.50;34.38;99785.81;4353875;32;32282;-81
2023/05/22 09:28:45;;;;;;;;;;;;;;;26.32;35.27;99785.09;4349269;32;33851;-81
2023/05/22 09:31:19;;;;;;;;;;;;;;;26.48;34.34;99782.41;4372770;32;32514;-82
2023/05/22 09:33:50;;;;;;;;;;;;;;;26.19;35.30;99782.03;4360700;32;32869;-81
2023/05/22 09:36:18;;;;;;;;;;;;;;;26.86;35.05;99788.13;4348896;32;32460;-81
2023/05/22 09:38:48;;;;;;;;;;;;;;;26.30;34.93;99789.81;4348836;32;33726;-82
2023/05/22 09:41:21;;;;;;;;;;;;;;;26.64;35.13;99787.00;4351936;32;33141;-81
2023/05/22 09:43:50;;;;;;;;;;;;;;;26.79;34.63;99790.69;4347894;32;33061;-81
2023/05/22 09:46:18;;;;;;;;;;;;;;;27.17;33.38;99780.13;4361857;32;33883;-81
2023/05/22 09:48:50;;;;;;;;;;;;;;;26.60;33.62;99780.22;4348228;32;34520;-81
2023/05/22 09:51:26;;;;;;;;;;;;;;;26.53;34.20;99779.19;4349317;32;35106;-81
2023/05/22 09:53:57;;;;;;;;;;;;;;;26.14;33.70;99782.53;4360815;32;35260;-81
2023/05/22 09:56:34;;;;;;;;;;;;;;;26.92;33.07;99778.44;4352801;32;33392;-81
2023/05/22 09:59:08;;;;;;;;;;;;;;;27.41;34.22;99772.94;4359624;32;35065;-82
2023/05/22 10:01:37;;;;;;;;;;;;;;;27.32;32.15;99777.53;4347638;32;34281;-81
2023/05/22 10:04:06;;;;;;;;;;;;;;;27.29;32.98;99776.00;4359571;32;34506;-81
2023/05/22 10:06:38;;;;;;;;;;;;;;;27.53;31.42;99775.03;4354766;32;32354;-81
2023/05/22 10:09:07;;;;;;;;;;;;;;;27.43;31.32;99770.88;4335773;32;33122;-81
2023/05/22 10:11:35;;;;;;;;;;;;;;;27.91;31.13;99766.22;4361052;32;34040;-81
2023/05/22 10:14:03;;;;;;;;;;;;;;;27.37;32.80;99766.16;4356711;32;33720;-81
2023/05/22 10:16:33;;;;;;;;;;;;;;;27.60;32.15;99761.62;4355405;32;32452;-81
2023/05/22 10:19:01;;;;;;;;;;;;;;;27.80;31.17;99752.06;4354600;32;34877;-81
2023/05/22 10:21:35;;;;;;;;;;;;;;;28.01;31.66;99759.56;4351548;32;34278;-81
2023/05/22 10:24:06;;;;;;;;;;;;;;;28.18;31.73;99751.28;4357508;32;34064;-81
2023/05/22 10:26:35;;;;;;;;;;;;;;;27.78;31.93;99748.69;4354022;32;32982;-82
2023/05/22 10:29:09;;;;;;;;;;;;;;;27.84;31.97;99746.28;4356347;32;34376;-81
2023/05/22 10:31:47;;;;;;;;;;;;;;;27.69;31.88;99744.31;4352216;32;34363;-82
2023/05/22 10:34:17;;;;;;;;;;;;;;;27.88;30.89;99736.75;4364967;32;33678;-81
2023/05/22 10:37:01;;;;;;;;;;;;;;;27.96;30.98;99742.09;4335701;32;33554;-81
2023/05/22 10:39:59;;;;;;;;;;;;;;;28.26;31.08;99735.78;4359984;32;34977;-81
2023/05/22 10:42:32;;;;;;;;;;;;;;;28.57;30.73;99732.13;4360029;32;34292;-81
2023/05/22 10:47:36;;;;;;;;;;;;;;;28.66;30.36;99722.03;4355080;32;33038;-82
2023/05/22 10:50:06;;;;;;;;;;;;;;;29.11;29.62;99722.91;4353681;32;34810;-81
2023/05/22 10:52:39;;;;;;;;;;;;;;;29.20;29.00;99722.62;4354775;32;33789;-81
2023/05/22 10:55:10;;;;;;;;;;;;;;;29.44;29.11;99715.19;4368731;32;32968;-82
2023/05/22 10:57:38;;;;;;;;;;;;;;;29.06;30.25;99715.34;4347567;32;33102;-81
2023/05/22 11:00:20;;;;;;;;;;;;;;;28.54;30.78;99711.63;4346072;32;34619;-82
2023/05/22 11:02:50;;;;;;;;;;;;;;;28.79;32.18;99709.47;4365464;32;34453;-82
2023/05/22 11:05:25;;;;;;;;;;;;;;;28.91;31.54;99706.28;4374953;32;34874;-81
2023/05/22 11:08:08;;;;;;;;;;;;;;;28.84;31.18;99707.03;4360794;32;33440;-82
2023/05/22 11:10:55;;;;;;;;;;;;;;;29.31;30.99;99697.66;4345555;32;33659;-82
2023/05/22 11:13:26;;;;;;;;;;;;;;;29.61;30.77;99697.59;4354923;32;33708;-82
2023/05/22 11:15:57;;;;;;;;;;;;;;;29.58;30.00;99687.97;4353801;32;34476;-82
2023/05/22 11:18:27;;;;;;;;;;;;;;;29.44;29.45;99685.25;4352923;32;33385;-82
2023/05/22 11:20:57;;;;;;;;;;;;;;;29.56;28.85;99683.75;4354115;32;33861;-82
2023/05/22 11:23:28;;;;;;;;;;;;;;;29.12;29.74;99683.81;4356030;32;33828;-82
2023/05/22 11:26:15;;;;;;;;;;;;;;;29.51;28.59;99694.31;4374573;32;35081;-81
2023/05/22 11:31:57;;;;;;;;;;;;;;;29.38;29.10;99675.97;4361612;32;35275;-82
2023/05/22 11:34:27;;;;;;;;;;;;;;;29.48;29.19;99676.53;4354387;32;34065;-82
2023/05/22 11:36:58;;;;;;;;;;;;;;;29.22;30.39;99677.03;4360655;32;33288;-82
2023/05/22 11:39:26;;;;;;;;;;;;;;;28.94;30.41;99678.75;4352399;32;33080;-82
2023/05/22 11:41:56;;;;;;;;;;;;;;;29.55;30.98;99676.62;4331284;32;33501;-82
2023/05/22 11:44:29;;;;;;;;;;;;;;;29.25;28.81;99671.25;4361571;32;33997;-82
2023/05/22 11:47:00;;;;;;;;;;;;;;;29.43;28.91;99668.06;4360292;32;34841;-82
2023/05/22 11:49:28;;;;;;;;;;;;;;;29.37;29.08;99668.84;4342098;32;33129;-82
2023/05/22 11:51:55;;;;;;;;;;;;;;;29.50;29.41;99665.44;4316040;32;839625;-82
2023/05/22 11:54:31;;;;;;;;;;;;;;;29.19;29.07;99669.25;4332355;32;34034;-82
2023/05/22 11:56:58;;;;;;;;;;;;;;;29.93;28.85;99665.50;4360757;32;32684;-82
2023/05/22 11:59:33;;;;;;;;;;;;;;;29.48;29.77;99667.50;4342804;32;33432;-82
2023/05/22 12:02:07;;;;;;;;;;;;;;;30.05;28.96;99666.63;4366966;32;32630;-82
2023/05/22 12:04:36;;;;;;;;;;;;;;;29.83;29.83;99663.09;4360782;32;33864;-82
2023/05/22 12:07:08;;;;;;;;;;;;;;;30.07;29.06;99659.13;4340435;32;33214;-82
2023/05/22 12:09:41;;;;;;;;;;;;;;;30.11;28.46;99660.41;4357792;32;32132;-82
2023/05/22 12:12:14;;;;;;;;;;;;;;;30.11;28.17;99657.69;4354013;32;33886;-82
2023/05/22 12:14:46;;;;;;;;;;;;;;;30.04;28.43;99654.91;4371039;32;34606;-82
2023/05/22 12:17:15;;;;;;;;;;;;;;;29.99;30.10;99651.09;4328633;32;34161;-81
2023/05/22 12:22:28;;;;;;;;;;;;;;;30.56;26.90;99647.34;4355672;32;33714;-82
2023/05/22 12:24:58;;;;;;;;;;;;;;;30.36;28.38;99641.78;4359414;32;33052;-81
2023/05/22 12:27:31;;;;;;;;;;;;;;;30.21;28.75;99639.16;4354770;32;34073;-82
2023/05/22 12:30:09;;;;;;;;;;;;;;;29.50;29.25;99635.53;4353430;32;32416;-81
2023/05/22 12:32:38;;;;;;;;;;;;;;;29.50;29.22;99635.53;4361604;32;33609;-81
2023/05/22 12:37:52;;;;;;;;;;;;;;;29.68;28.95;99629.66;4358496;32;33675;-81
2023/05/22 12:40:21;;;;;;;;;;;;;;;29.87;28.03;99630.91;4355563;32;33322;-81
2023/05/22 12:42:51;;;;;;;;;;;;;;;29.46;30.03;99621.47;4350801;32;34192;-82
2023/05/22 12:45:20;;;;;;;;;;;;;;;29.03;30.17;99617.84;4353932;32;33846;-81
2023/05/22 12:47:50;;;;;;;;;;;;;;;29.03;30.24;99624.12;4353754;32;34316;-82
2023/05/22 12:50:27;;;;;;;;;;;;;;;29.45;30.65;99614.34;4348402;32;33017;-81
2023/05/22 12:52:56;;;;;;;;;;;;;;;29.73;30.20;99611.72;4355124;32;34135;-82
2023/05/22 12:55:24;;;;;;;;;;;;;;;30.06;30.11;99613.88;4346455;32;34351;-82
2023/05/22 12:57:54;;;;;;;;;;;;;;;30.44;29.03;99602.66;4361245;32;32933;-82
2023/05/22 13:00:27;;;;;;;;;;;;;;;30.49;29.84;99608.34;4358410;32;33794;-82
2023/05/22 13:02:57;;;;;;;;;;;;;;;30.76;27.78;99593.81;4350759;32;33344;-82
2023/05/22 13:08:05;;;;;;;;;;;;;;;30.71;28.04;99588.13;4360033;32;33972;-82
2023/05/22 13:10:34;;;;;;;;;;;;;;;30.85;27.89;99589.87;4338456;32;33822;-82
2023/05/22 13:13:10;;;;;;;;;;;;;;;30.97;29.21;99589.31;4353604;32;34265;-81
2023/05/22 13:15:41;;;;;;;;;;;;;;;31.06;28.12;99580.75;4354653;32;34879;-82
2023/05/22 13:18:12;;;;;;;;;;;;;;;30.91;27.81;99581.91;4345777;32;33888;-82
2023/05/22 13:20:42;;;;;;;;;;;;;;;30.67;29.08;99578.69;4340237;32;34125;-82